Time;durP1;ratioP1;P1;durP2;ratioP2;P2;SDS_P1;SDS_P2;PMS_P1;PMS_P2;Temp;Humidity;BMP_temperature;BMP_pressure;BME280_temperature;BME280_humidity;BME280_pressure;Samples;Min_cycle;Max_cycle;Signal;HPM_P1;HPM_P2
2023/06/08 00:00:51;;;;;;;;;11.50;11.00;;;;;21.71;39.11;101239.59;6378522;22;45266;-96
2023/06/08 00:03:18;;;;;;;;;13.00;12.75;;;;;21.75;39.51;101249.84;6377244;22;45431;-96
2023/06/08 00:06:32;;;;;;;;;14.25;12.75;;;;;21.86;39.18;101264.91;6378712;22;45250;-96
2023/06/08 00:09:01;;;;;;;;;14.25;14.25;;;;;21.66;39.43;101237.25;6372065;22;46089;-96
2023/06/08 00:11:27;;;;;;;;;16.50;14.75;;;;;21.73;39.10;101243.84;6370117;22;45241;-95
2023/06/08 00:13:56;;;;;;;;;17.00;14.00;;;;;21.56;39.28;101225.69;6373004;22;44645;-96
2023/06/08 00:16:21;;;;;;;;;14.25;12.50;;;;;21.65;39.14;101232.94;6373658;22;45029;-96
2023/06/08 00:18:49;;;;;;;;;13.25;13.25;;;;;21.65;39.80;101235.56;6369486;22;46651;-96
2023/06/08 00:21:15;;;;;;;;;13.00;12.50;;;;;21.48;40.01;101213.84;6370547;22;45278;-96
2023/06/08 00:23:41;;;;;;;;;14.50;13.75;;;;;21.57;39.75;101227.38;6372614;22;45413;-96
2023/06/08 00:26:12;;;;;;;;;14.75;14.25;;;;;21.43;39.82;101212.53;6373669;22;44873;-96
2023/06/08 00:28:40;;;;;;;;;13.50;12.25;;;;;21.47;39.99;101219.25;6375014;22;47162;-96
2023/06/08 00:31:05;;;;;;;;;13.75;13.75;;;;;21.34;39.96;101206.94;6373011;22;45139;-96
2023/06/08 00:33:31;;;;;;;;;16.00;13.75;;;;;21.35;39.87;101213.91;6372433;22;45069;-96
2023/06/08 00:35:58;;;;;;;;;17.00;16.50;;;;;21.43;39.58;101225.75;6373050;22;44942;-96
2023/06/08 00:38:24;;;;;;;;;18.00;17.75;;;;;21.29;40.03;101202.97;6373337;22;45387;-95
2023/06/08 00:40:49;;;;;;;;;14.75;14.75;;;;;21.25;40.25;101204.16;6369470;22;45122;-96
2023/06/08 00:43:15;;;;;;;;;15.00;14.00;;;;;21.22;40.82;101197.28;6377839;22;45247;-96
2023/06/08 00:45:40;;;;;;;;;18.25;15.50;;;;;21.23;40.73;101197.19;6372666;22;44926;-96
2023/06/08 00:48:07;;;;;;;;;16.50;16.50;;;;;21.18;40.45;101194.03;6376740;22;47532;-96
2023/06/08 00:50:32;;;;;;;;;14.75;14.75;;;;;21.33;40.66;101215.84;6372091;22;45270;-96
2023/06/08 00:52:59;;;;;;;;;15.75;15.25;;;;;21.15;40.73;101185.47;6372798;22;44765;-96
2023/06/08 00:55:25;;;;;;;;;15.25;14.75;;;;;21.19;40.55;101200.13;6370825;22;44918;-95
2023/06/08 00:57:51;;;;;;;;;13.75;13.75;;;;;21.07;40.90;101178.91;6372805;22;47204;-95
2023/06/08 01:00:17;;;;;;;;;13.50;13.50;;;;;21.27;41.00;101226.03;6375890;22;44747;-96
2023/06/08 01:02:43;;;;;;;;;15.00;15.00;;;;;21.01;41.07;101186.50;6373199;22;44735;-96
2023/06/08 01:05:09;;;;;;;;;17.75;17.75;;;;;21.02;41.71;101199.56;6375614;22;44886;-96
2023/06/08 01:08:04;;;;;;;;;12.50;12.00;;;;;21.13;41.50;101216.47;6380263;22;46276;-96
2023/06/08 01:10:54;;;;;;;;;17.25;17.25;;;;;21.11;41.42;101224.56;6381225;22;44819;-96
2023/06/08 01:13:47;;;;;;;;;17.00;16.50;;;;;20.93;42.13;101194.97;6376758;22;45166;-96
2023/06/08 01:16:15;;;;;;;;;13.75;13.25;;;;;20.79;41.58;101186.19;6374913;22;45226;-96
2023/06/08 01:18:43;;;;;;;;;14.00;14.00;;;;;20.75;42.07;101181.25;6375567;22;45735;-96
2023/06/08 01:21:33;;;;;;;;;17.75;17.25;;;;;20.79;42.20;101195.94;6373036;22;44705;-96
2023/06/08 01:24:15;;;;;;;;;17.25;15.50;;;;;20.88;42.34;101219.09;6375907;22;45299;-96
2023/06/08 01:26:43;;;;;;;;;19.25;15.00;;;;;20.63;41.91;101186.47;6373625;22;44872;-96
2023/06/08 01:29:10;;;;;;;;;16.00;16.00;;;;;20.56;42.58;101182.59;6377429;22;45039;-96
2023/06/08 01:31:37;;;;;;;;;17.25;16.75;;;;;20.64;42.89;101214.59;6378218;22;44729;-96
2023/06/08 01:34:05;;;;;;;;;16.50;15.50;;;;;20.42;42.81;101181.75;6375549;22;44799;-96
2023/06/08 01:36:49;;;;;;;;;15.00;13.00;;;;;20.59;42.91;101216.72;6372064;22;44838;-96
2023/06/08 01:39:37;;;;;;;;;17.50;17.50;;;;;20.54;42.67;101219.69;6370765;22;45558;-96
2023/06/08 01:42:06;;;;;;;;;17.25;15.75;;;;;20.27;43.08;101188.97;6373746;22;44779;-96
2023/06/08 01:44:44;;;;;;;;;20.50;19.00;;;;;20.24;43.17;101183.94;6379745;22;44662;-96
2023/06/08 01:47:14;;;;;;;;;16.75;16.00;;;;;20.20;43.01;101186.88;6375998;22;44822;-96
2023/06/08 01:49:40;;;;;;;;;18.00;16.25;;;;;20.31;43.41;101210.75;6372234;22;45574;-96
2023/06/08 01:52:06;;;;;;;;;17.50;16.00;;;;;20.11;43.55;101189.22;6374524;22;44613;-96
2023/06/08 01:54:32;;;;;;;;;16.50;14.00;;;;;20.04;43.54;101185.28;6376858;22;44691;-96
2023/06/08 01:56:57;;;;;;;;;17.50;17.00;;;;;20.06;43.49;101193.97;6375621;22;44904;-96
2023/06/08 01:59:23;;;;;;;;;19.00;18.00;;;;;19.99;43.65;101187.41;6380427;22;46912;-96
2023/06/08 02:01:49;;;;;;;;;15.50;15.00;;;;;19.96;43.93;101193.78;6379813;22;44634;-96
2023/06/08 02:04:14;;;;;;;;;15.75;15.75;;;;;19.90;43.64;101199.41;6377259;22;44799;-96
2023/06/08 02:06:40;;;;;;;;;17.75;17.00;;;;;19.86;44.21;101198.78;6374331;22;44867;-96
2023/06/08 02:09:05;;;;;;;;;15.75;15.75;;;;;19.89;44.00;101210.94;6379220;22;45510;-95
2023/06/08 02:11:31;;;;;;;;;16.25;16.25;;;;;19.79;44.26;101199.28;6370807;22;45099;-95
2023/06/08 02:13:56;;;;;;;;;15.25;15.25;;;;;19.74;44.03;101194.34;6372890;22;45412;-96
2023/06/08 02:16:22;;;;;;;;;15.75;15.75;;;;;19.86;44.33;101217.25;6373418;22;45851;-96
2023/06/08 02:18:50;;;;;;;;;18.50;17.50;;;;;19.71;44.05;101192.75;6372927;22;47299;-96
2023/06/08 02:21:15;;;;;;;;;17.25;16.00;;;;;19.69;45.08;101188.53;6376443;22;44794;-96
2023/06/08 02:23:41;;;;;;;;;18.25;18.00;;;;;19.65;44.95;101187.88;6378012;22;44701;-96
2023/06/08 02:26:08;;;;;;;;;20.00;18.00;;;;;19.62;44.52;101191.59;6380341;22;44943;-96
2023/06/08 02:28:35;;;;;;;;;18.75;18.25;;;;;19.56;44.86;101189.34;6380598;22;45831;-96
2023/06/08 02:31:03;;;;;;;;;21.50;21.50;;;;;19.58;45.23;101203.28;6381808;22;44772;-96
2023/06/08 02:33:28;;;;;;;;;20.00;17.75;;;;;19.45;45.15;101190.06;6378651;22;44846;-96
2023/06/08 02:35:54;;;;;;;;;18.75;18.75;;;;;19.38;45.13;101186.16;6384374;22;44800;-96
2023/06/08 02:38:23;;;;;;;;;15.75;15.00;;;;;19.36;45.43;101188.06;6385978;22;45250;-96
2023/06/08 02:40:48;;;;;;;;;19.75;18.75;;;;;19.26;45.51;101177.28;6387700;22;44600;-96
2023/06/08 02:43:18;;;;;;;;;16.75;16.25;;;;;19.36;45.50;101195.97;6386823;22;44721;-96
2023/06/08 02:45:43;;;;;;;;;19.00;18.00;;;;;19.22;46.01;101178.41;6382550;22;44876;-96
2023/06/08 02:48:09;;;;;;;;;20.00;19.00;;;;;19.14;45.71;101184.19;6381155;22;46808;-96
2023/06/08 02:50:35;;;;;;;;;22.00;20.50;;;;;19.12;46.23;101178.16;6382287;22;45087;-96
2023/06/08 02:53:02;;;;;;;;;18.00;17.75;;;;;19.07;45.82;101175.00;6383290;22;44636;-96
2023/06/08 02:55:34;;;;;;;;;19.00;19.00;;;;;19.26;46.07;101213.34;6380299;22;44745;-95
2023/06/08 02:58:00;;;;;;;;;22.00;21.25;;;;;18.98;46.24;101178.19;6380678;22;45437;-96
2023/06/08 03:00:26;;;;;;;;;20.75;20.75;;;;;18.96;46.78;101180.91;6383052;22;44610;-96
2023/06/08 03:02:52;;;;;;;;;20.00;19.50;;;;;19.05;46.69;101203.22;6378636;22;44624;-96
2023/06/08 03:05:21;;;;;;;;;24.50;20.75;;;;;18.90;46.85;101179.53;6386156;22;45952;-95
2023/06/08 03:07:59;;;;;;;;;20.50;20.50;;;;;18.86;46.72;101183.31;6398914;22;45710;-96
2023/06/08 03:10:48;;;;;;;;;17.00;16.25;;;;;19.07;46.71;101206.63;6279063;22;44742;-96
2023/06/08 03:13:15;;;;;;;;;21.50;20.00;;;;;18.88;46.94;101184.03;6259951;22;44784;-96
2023/06/08 03:15:45;;;;;;;;;21.75;20.25;;;;;18.81;47.11;101174.84;6215111;22;44874;-96
2023/06/08 03:18:12;;;;;;;;;16.25;16.00;;;;;18.86;47.42;101178.03;6260637;22;46920;-96
2023/06/08 03:20:37;;;;;;;;;24.50;22.00;;;;;18.77;47.12;101168.06;6233117;22;45228;-95
2023/06/08 03:23:07;;;;;;;;;23.75;23.50;;;;;18.83;47.58;101181.72;6317917;22;44725;-94
2023/06/08 03:26:02;;;;;;;;;21.50;19.50;;;;;18.79;47.75;101187.28;6343938;22;44973;-96
2023/06/08 03:28:28;;;;;;;;;21.00;20.75;;;;;18.87;47.40;101195.53;6314272;22;45468;-96
2023/06/08 03:31:00;;;;;;;;;22.75;22.25;;;;;18.70;47.52;101173.72;6344238;22;44852;-96
2023/06/08 03:33:25;;;;;;;;;21.00;20.00;;;;;18.69;47.49;101173.81;6315595;22;44658;-96
2023/06/08 03:35:53;;;;;;;;;22.00;19.25;;;;;18.77;47.28;101189.16;6313353;22;44963;-96
2023/06/08 03:38:18;;;;;;;;;22.75;21.75;;;;;18.79;47.63;101193.38;6310182;22;45932;-96
2023/06/08 03:40:44;;;;;;;;;25.00;22.50;;;;;18.75;47.49;101183.16;6339042;22;44771;-96
2023/06/08 03:43:09;;;;;;;;;25.50;22.75;;;;;18.77;47.81;101187.38;6343025;22;45415;-96
2023/06/08 03:45:35;;;;;;;;;21.00;19.50;;;;;18.65;47.60;101164.44;6315006;22;45322;-96
2023/06/08 03:48:00;;;;;;;;;24.75;21.25;;;;;18.75;48.00;101180.50;6340263;22;45434;-96
2023/06/08 03:50:26;;;;;;;;;23.50;22.25;;;;;18.79;48.08;101190.75;6313681;22;45286;-96
2023/06/08 03:52:52;;;;;;;;;20.75;20.75;;;;;18.70;47.84;101168.47;6314293;22;44740;-96
2023/06/08 03:55:17;;;;;;;;;26.50;25.25;;;;;18.67;47.69;101163.41;6315133;22;44918;-96
2023/06/08 03:57:43;;;;;;;;;20.25;17.50;;;;;18.85;47.78;101196.56;6342959;22;45337;-96
2023/06/08 04:00:11;;;;;;;;;24.50;24.00;;;;;18.72;48.28;101164.88;6340053;22;44685;-96
2023/06/08 04:02:37;;;;;;;;;21.75;21.75;;;;;18.81;47.57;101180.13;6339660;22;45258;-96
2023/06/08 04:05:03;;;;;;;;;21.25;21.25;;;;;18.72;47.35;101162.25;6337159;22;45264;-96
2023/06/08 04:07:29;;;;;;;;;21.25;19.25;;;;;18.72;47.85;101160.47;6338611;22;48234;-96
2023/06/08 04:09:55;;;;;;;;;24.75;22.25;;;;;18.74;47.90;101166.47;6313667;22;45170;-96
2023/06/08 04:12:20;;;;;;;;;19.00;16.75;;;;;18.77;47.83;101162.78;6313765;22;45388;-96
2023/06/08 04:14:46;;;;;;;;;19.75;19.75;;;;;18.75;47.97;101162.88;6339858;22;44864;-96
2023/06/08 04:17:12;;;;;;;;;24.25;22.25;;;;;18.82;47.89;101174.75;6367177;22;47261;-96
2023/06/08 04:19:38;;;;;;;;;22.50;20.25;;;;;18.74;47.97;101155.09;6371791;22;45219;-96
2023/06/08 04:22:05;;;;;;;;;21.75;21.75;;;;;18.75;48.12;101154.97;6403329;22;44769;-96
2023/06/08 04:24:30;;;;;;;;;25.50;25.50;;;;;18.77;48.26;101160.16;6376320;22;44848;-96
2023/06/08 04:26:56;;;;;;;;;23.00;22.50;;;;;18.74;48.17;101148.00;6375910;22;47696;-96
2023/06/08 04:29:22;;;;;;;;;23.25;20.75;;;;;18.90;47.91;101165.50;6375961;22;45416;-96
2023/06/08 04:31:48;;;;;;;;;22.00;22.00;;;;;18.77;47.99;101154.88;6376856;22;44741;-96
2023/06/08 04:34:14;;;;;;;;;22.00;21.25;;;;;18.89;47.87;101163.81;6377630;22;44893;-96
2023/06/08 04:36:42;;;;;;;;;21.50;20.50;;;;;18.81;47.97;101170.44;6374208;22;46726;-95
2023/06/08 04:39:08;;;;;;;;;27.50;24.75;;;;;18.73;48.29;101154.25;6380296;22;45253;-96
2023/06/08 04:41:34;;;;;;;;;28.75;25.00;;;;;18.75;48.22;101156.78;6376517;22;45186;-94
2023/06/08 04:44:02;;;;;;;;;21.00;21.00;;;;;18.85;48.50;101164.94;6375611;22;44771;-95
2023/06/08 04:46:33;;;;;;;;;22.25;21.75;;;;;18.78;48.17;101160.06;6375393;22;47367;-96
2023/06/08 04:48:59;;;;;;;;;29.25;27.50;;;;;18.92;48.00;101172.34;6377402;22;44870;-93
2023/06/08 04:51:29;;;;;;;;;27.75;23.25;;;;;18.92;48.44;101177.63;6376412;22;45272;-96
2023/06/08 04:54:03;;;;;;;;;22.75;21.50;;;;;18.82;48.21;101160.72;6375956;22;45366;-95
2023/06/08 04:56:33;;;;;;;;;28.00;24.75;;;;;18.83;48.20;101157.97;6404371;22;47165;-95
2023/06/08 04:59:01;;;;;;;;;28.75;26.50;;;;;18.90;48.73;101176.91;6376339;22;44754;-96
2023/06/08 05:01:28;;;;;;;;;25.50;25.50;;;;;18.82;48.42;101155.44;6382272;22;44781;-96
2023/06/08 05:03:54;;;;;;;;;25.25;23.75;;;;;18.86;48.74;101156.06;6381626;22;44902;-96
2023/06/08 05:06:20;;;;;;;;;25.75;25.00;;;;;18.86;48.50;101158.72;6414668;22;45471;-96
2023/06/08 05:08:47;;;;;;;;;25.50;25.25;;;;;18.87;48.84;101158.63;6408974;22;45173;-96
2023/06/08 05:11:13;;;;;;;;;25.75;25.75;;;;;18.91;48.55;101164.53;6382031;22;44630;-96
2023/06/08 05:13:38;;;;;;;;;31.00;26.25;;;;;18.91;48.87;101161.91;6403919;22;44852;-96
2023/06/08 05:16:04;;;;;;;;;26.00;23.00;;;;;18.91;48.99;101162.75;6381348;22;46888;-96
2023/06/08 05:18:29;;;;;;;;;31.75;28.25;;;;;19.05;48.62;101188.28;6409044;22;45229;-96
2023/06/08 05:20:57;;;;;;;;;27.00;24.75;;;;;18.96;48.90;101165.09;6381803;22;44623;-96
2023/06/08 05:23:27;;;;;;;;;26.75;25.00;;;;;19.00;48.58;101165.72;6411124;22;44962;-96
2023/06/08 05:25:53;;;;;;;;;27.75;25.00;;;;;19.03;49.01;101158.50;6383620;22;45403;-96
2023/06/08 05:28:18;;;;;;;;;26.00;24.75;;;;;19.08;48.71;101168.75;6382153;22;44681;-96
2023/06/08 05:30:46;;;;;;;;;24.75;23.75;;;;;19.09;48.75;101160.75;6412202;22;45233;-96
2023/06/08 05:33:12;;;;;;;;;28.75;28.75;;;;;19.19;49.04;101163.63;6386943;22;44897;-96
2023/06/08 05:35:37;;;;;;;;;30.50;29.25;;;;;19.14;49.13;101154.31;6385182;22;46835;-96
2023/06/08 05:38:08;;;;;;;;;27.00;23.25;;;;;19.18;48.91;101150.53;6408448;22;44788;-96
2023/06/08 05:40:34;;;;;;;;;29.25;28.50;;;;;19.35;48.80;101163.44;6409626;22;44627;-96
2023/06/08 05:43:00;;;;;;;;;29.75;26.75;;;;;19.31;49.21;101158.47;6383478;22;44874;-96
2023/06/08 05:45:27;;;;;;;;;27.25;25.50;;;;;19.29;49.21;101150.66;6379806;22;46887;-96
2023/06/08 05:47:54;;;;;;;;;32.25;30.25;;;;;19.29;48.91;101145.38;6386681;22;45122;-96
2023/06/08 05:50:20;;;;;;;;;29.75;27.50;;;;;19.33;49.28;101149.53;6385545;22;44656;-96
2023/06/08 05:52:47;;;;;;;;;27.00;26.75;;;;;19.38;48.78;101151.00;6383073;22;44828;-96
2023/06/08 05:55:12;;;;;;;;;31.75;30.00;;;;;19.42;49.35;101147.19;6384780;22;45476;-96
2023/06/08 05:57:38;;;;;;;;;33.00;29.75;;;;;19.65;49.73;101181.75;6409892;22;45159;-96
2023/06/08 06:00:11;;;;;;;;;30.50;29.00;;;;;19.49;49.39;101153.78;6385480;22;45223;-96
2023/06/08 06:02:39;;;;;;;;;28.50;27.25;;;;;19.70;49.61;101183.16;6421881;22;44809;-96
2023/06/08 06:05:10;;;;;;;;;32.00;30.00;;;;;19.54;49.22;101146.41;6413250;22;45604;-96
2023/06/08 06:07:37;;;;;;;;;34.00;30.75;;;;;19.65;49.45;101150.06;6388482;22;44758;-96
2023/06/08 06:10:05;;;;;;;;;34.50;30.00;;;;;19.59;49.15;101133.69;6413564;22;44827;-96
2023/06/08 06:12:31;;;;;;;;;28.25;26.50;;;;;19.69;49.70;101149.78;6414712;22;45478;-96
2023/06/08 06:14:56;;;;;;;;;30.25;27.75;;;;;19.76;49.51;101153.69;6414054;22;46735;-96
2023/06/08 06:17:23;;;;;;;;;33.75;30.75;;;;;19.71;49.78;101141.72;6388271;22;44779;-96
2023/06/08 06:19:49;;;;;;;;;29.25;29.25;;;;;19.74;50.20;101138.91;6389459;22;44728;-96
2023/06/08 06:22:16;;;;;;;;;34.75;30.00;;;;;19.93;49.75;101167.53;6415267;22;44783;-96
2023/06/08 06:24:42;;;;;;;;;35.25;30.75;;;;;19.75;50.20;101136.16;6382576;22;47393;-96
2023/06/08 06:27:07;;;;;;;;;34.00;31.25;;;;;19.80;49.72;101145.56;6385897;22;44890;-96
2023/06/08 06:29:33;;;;;;;;;33.75;30.25;;;;;19.84;49.88;101144.38;6382674;22;44873;-96
2023/06/08 06:31:59;;;;;;;;;34.25;31.75;;;;;19.92;49.80;101143.84;6390131;22;44814;-96
2023/06/08 06:34:24;;;;;;;;;33.00;30.25;;;;;19.94;49.59;101137.50;6407709;22;45340;-96
2023/06/08 06:36:50;;;;;;;;;30.50;29.00;;;;;20.04;49.80;101140.38;6402208;22;44756;-96
2023/06/08 06:39:17;;;;;;;;;26.75;25.75;;;;;20.23;50.09;101157.59;6378072;22;45325;-96
2023/06/08 06:41:46;;;;;;;;;32.00;30.25;;;;;20.34;49.87;101172.69;6360042;22;45271;-96
2023/06/08 06:44:21;;;;;;;;;38.00;32.50;;;;;20.39;50.08;101173.22;6401034;22;45467;-96
2023/06/08 06:46:51;;;;;;;;;38.50;33.75;;;;;20.40;49.79;101165.19;6374666;22;45307;-96
2023/06/08 06:49:16;;;;;;;;;33.50;30.00;;;;;20.37;49.61;101152.16;6375227;22;45214;-96
2023/06/08 06:51:42;;;;;;;;;34.00;31.50;;;;;20.51;49.42;101167.03;6375604;22;45198;-96
2023/06/08 06:54:09;;;;;;;;;35.75;32.75;;;;;20.57;49.74;101168.41;6377135;22;45591;-96
2023/06/08 06:56:35;;;;;;;;;35.75;32.75;;;;;20.60;49.71;101164.72;6347819;22;45361;-96
2023/06/08 06:59:02;;;;;;;;;36.50;32.00;;;;;20.64;49.55;101163.53;6374730;22;45375;-96
2023/06/08 07:01:28;;;;;;;;;33.50;30.50;;;;;20.59;49.93;101150.63;6350170;22;44916;-96
2023/06/08 07:03:53;;;;;;;;;37.50;33.25;;;;;20.70;49.50;101163.91;6374130;22;46474;-96
2023/06/08 07:06:23;;;;;;;;;36.00;33.00;;;;;20.64;49.69;101139.75;6374507;22;45245;-96
2023/06/08 07:08:49;;;;;;;;;40.75;34.25;;;;;20.66;49.60;101136.03;6375347;22;44754;-96
2023/06/08 07:11:14;;;;;;;;;36.75;33.25;;;;;20.83;49.78;101157.75;6376306;22;45479;-96
2023/06/08 07:13:39;;;;;;;;;34.50;31.75;;;;;20.77;49.89;101148.47;6379018;22;47232;-96
2023/06/08 07:16:08;;;;;;;;;37.50;32.00;;;;;20.99;49.44;101168.06;6382868;22;44830;-96
2023/06/08 07:19:00;;;;;;;;;30.00;29.25;;;;;20.85;49.24;101133.81;6397042;22;44831;-96
2023/06/08 07:21:51;;;;;;;;;34.75;30.25;;;;;20.90;49.64;101129.91;6423947;22;44743;-96
2023/06/08 07:24:18;;;;;;;;;30.75;29.00;;;;;20.95;49.77;101135.72;6318741;22;45702;-96
2023/06/08 07:29:43;;;;;;;;;33.75;30.25;;;;;21.31;49.06;101161.34;6382317;22;44929;-96
2023/06/08 07:32:18;;;;;;;;;32.25;31.25;;;;;21.17;49.79;101125.31;6322466;22;44832;-96
2023/06/08 07:34:44;;;;;;;;;35.75;32.00;;;;;21.22;49.58;101129.34;6322329;22;45492;-96
2023/06/08 07:37:09;;;;;;;;;33.00;30.50;;;;;21.28;49.85;101124.53;6346469;22;45472;-96
2023/06/08 07:39:35;;;;;;;;;32.25;30.25;;;;;21.31;49.90;101127.78;6323006;22;44732;-96
2023/06/08 07:42:02;;;;;;;;;37.50;34.25;;;;;21.40;50.13;101120.94;6312105;22;45644;-96
2023/06/08 07:44:28;;;;;;;;;40.00;32.25;;;;;21.48;49.82;101129.13;6332571;22;47297;-96
2023/06/08 07:46:53;;;;;;;;;30.25;29.25;;;;;21.73;49.76;101152.94;6323615;22;44662;-96
2023/06/08 07:49:21;;;;;;;;;34.25;31.75;;;;;21.60;49.45;101122.06;6344705;22;44716;-96
2023/06/08 07:51:53;;;;;;;;;34.75;30.50;;;;;21.72;49.50;101130.88;6305734;22;44920;-96
2023/06/08 07:54:19;;;;;;;;;34.75;31.25;;;;;21.86;49.18;101145.69;6388586;22;45731;-96
2023/06/08 07:56:52;;;;;;;;;29.75;29.50;;;;;21.97;49.18;101150.19;6419860;22;44753;-96
2023/06/08 07:59:23;;;;;;;;;32.50;31.25;;;;;22.00;49.38;101130.56;6390432;22;44763;-96
2023/06/08 08:02:19;;;;;;;;;34.50;31.25;;;;;22.02;49.35;101123.31;6388839;22;44951;-96
2023/06/08 08:04:45;;;;;;;;;30.50;26.50;;;;;22.16;49.35;101123.06;6383713;22;45353;-96
2023/06/08 08:07:12;;;;;;;;;34.25;31.75;;;;;22.19;49.56;101113.19;6393943;22;44951;-96
2023/06/08 08:17:25;;;;;;;;;34.50;31.50;;;;;22.51;49.23;101105.31;6417983;22;44886;-96
2023/06/08 08:19:53;;;;;;;;;37.50;32.25;;;;;22.66;49.20;101123.59;6364899;22;44694;-96
2023/06/08 08:22:22;;;;;;;;;30.75;30.00;;;;;22.70;48.76;101109.13;6386750;22;44913;-96
2023/06/08 08:24:53;;;;;;;;;29.00;27.00;;;;;22.91;48.56;101130.38;6384793;22;45135;-96
2023/06/08 08:27:19;;;;;;;;;29.50;29.00;;;;;22.81;48.42;101101.13;6372449;22;45268;-96
2023/06/08 08:35:22;;;;;;;;;30.25;28.25;;;;;23.29;48.54;101130.81;6381898;22;45053;-96
2023/06/08 08:37:49;;;;;;;;;25.00;23.25;;;;;23.18;48.06;101099.88;6325119;22;44738;-96
2023/06/08 08:40:15;;;;;;;;;26.75;26.00;;;;;23.25;47.89;101099.34;6329792;22;44832;-96
2023/06/08 08:48:19;;;;;;;;;29.75;27.50;;;;;23.72;47.54;101115.72;6420185;22;44903;-96
2023/06/08 08:50:58;;;;;;;;;25.50;24.25;;;;;23.73;47.17;101097.97;6421949;22;44844;-96
2023/06/08 09:48:15;;;;;;;;;27.75;26.00;;;;;26.02;43.48;101061.34;6386175;22;46296;-96
2023/06/08 20:37:51;;;;;;;;;17.75;17.00;;;;;26.20;34.13;100818.69;6393384;22;45778;-90
2023/06/08 20:40:17;;;;;;;;;18.00;17.50;;;;;26.13;34.37;100822.97;6403236;22;45445;-90
2023/06/08 20:42:43;;;;;;;;;18.25;17.75;;;;;26.06;34.57;100817.41;6366421;22;45314;-90
2023/06/08 20:45:09;;;;;;;;;14.75;14.75;;;;;25.97;34.46;100821.84;6373890;22;45328;-90
2023/06/08 20:47:34;;;;;;;;;16.25;15.75;;;;;25.93;34.83;100823.19;6380962;22;46978;-90
2023/06/08 20:49:59;;;;;;;;;17.75;17.00;;;;;25.89;34.57;100819.16;6410278;22;45204;-90
2023/06/08 20:52:26;;;;;;;;;18.25;16.00;;;;;25.86;34.81;100822.09;6381709;22;45320;-90
2023/06/08 20:54:53;;;;;;;;;16.25;14.75;;;;;25.79;34.77;100818.38;6378613;22;45210;-89
2023/06/08 20:57:18;;;;;;;;;18.25;18.25;;;;;25.73;35.20;100820.66;6373564;22;46668;-91
2023/06/08 20:59:43;;;;;;;;;16.25;14.50;;;;;25.69;35.60;100821.16;6373365;22;45530;-91
2023/06/08 21:02:09;;;;;;;;;18.50;17.50;;;;;25.66;35.55;100821.44;6374465;22;45251;-90
2023/06/08 21:04:36;;;;;;;;;15.25;15.25;;;;;25.61;35.74;100816.56;6372948;22;45625;-90
2023/06/08 21:07:03;;;;;;;;;16.00;14.50;;;;;25.55;35.34;100818.00;6373779;22;46605;-90
2023/06/08 21:09:28;;;;;;;;;15.50;13.50;;;;;25.51;35.47;100819.28;6374205;22;45415;-90
2023/06/08 21:11:54;;;;;;;;;14.25;14.25;;;;;25.48;35.66;100811.59;6373909;22;45315;-90
2023/06/08 21:14:23;;;;;;;;;16.75;14.50;;;;;25.43;35.53;100805.88;6402944;22;45197;-90
2023/06/08 21:16:50;;;;;;;;;16.25;16.25;;;;;25.40;35.68;100803.53;6373776;22;45613;-90
2023/06/08 21:19:15;;;;;;;;;18.00;15.50;;;;;25.37;35.61;100801.16;6372269;22;45375;-90
2023/06/08 21:21:42;;;;;;;;;13.50;13.50;;;;;25.34;36.17;100808.47;6380107;22;45397;-90
2023/06/08 21:24:08;;;;;;;;;20.00;16.50;;;;;25.30;35.49;100801.75;6409518;22;45298;-90
2023/06/08 21:26:34;;;;;;;;;16.25;15.00;;;;;25.28;35.82;100797.56;6409887;22;45314;-90
2023/06/08 21:29:00;;;;;;;;;14.00;13.00;;;;;25.26;35.80;100797.72;6379860;22;45336;-90
2023/06/08 21:31:25;;;;;;;;;18.00;17.50;;;;;25.24;35.98;100791.72;6370122;22;45765;-90
2023/06/08 21:33:51;;;;;;;;;15.50;15.50;;;;;25.20;35.85;100788.53;6373342;22;45339;-90
2023/06/08 21:36:16;;;;;;;;;16.75;16.25;;;;;25.20;35.97;100798.31;6371886;22;47395;-90
2023/06/08 21:38:41;;;;;;;;;14.25;13.00;;;;;25.15;35.93;100787.28;6402026;22;45388;-90
2023/06/08 21:41:08;;;;;;;;;17.00;16.00;;;;;25.12;36.25;100787.59;6373546;22;45433;-90
2023/06/08 21:43:34;;;;;;;;;15.00;15.00;;;;;25.10;36.03;100785.09;6373974;22;45292;-90
2023/06/08 21:45:59;;;;;;;;;15.50;14.25;;;;;25.07;36.43;100794.22;6372882;22;46932;-90
2023/06/08 21:48:24;;;;;;;;;15.25;14.75;;;;;25.05;36.20;100798.81;6372409;22;45300;-90
2023/06/08 21:50:50;;;;;;;;;17.75;17.25;;;;;25.00;36.67;100794.94;6374345;22;45825;-90
2023/06/08 21:53:34;;;;;;;;;13.50;13.00;;;;;25.00;36.57;100789.63;6372755;22;45302;-90
2023/06/08 21:55:59;;;;;;;;;19.25;17.75;;;;;24.97;36.76;100789.91;6369637;22;45902;-91
2023/06/08 21:58:25;;;;;;;;;15.50;15.50;;;;;24.94;37.08;100788.38;6381267;22;45193;-90
2023/06/08 22:00:50;;;;;;;;;13.25;13.25;;;;;24.92;36.90;100795.69;6380194;22;45363;-90
2023/06/08 22:03:16;;;;;;;;;15.25;15.25;;;;;24.90;37.44;100797.66;6381276;22;45475;-90
2023/06/08 22:05:41;;;;;;;;;18.75;17.00;;;;;24.88;36.99;100792.50;6380984;22;45455;-91
2023/06/08 22:08:06;;;;;;;;;18.00;18.00;;;;;24.84;37.91;100790.28;6377077;22;45244;-90
2023/06/08 22:10:32;;;;;;;;;15.00;14.75;;;;;24.80;37.69;100793.19;6373708;22;45352;-90
2023/06/08 22:12:57;;;;;;;;;17.00;16.50;;;;;24.77;37.56;100790.00;6374683;22;45617;-90
2023/06/08 22:15:23;;;;;;;;;18.75;17.25;;;;;24.74;37.59;100790.28;6401633;22;45364;-89
2023/06/08 22:17:50;;;;;;;;;13.25;13.25;;;;;24.70;38.04;100792.41;6374283;22;45324;-89
2023/06/08 22:20:18;;;;;;;;;17.50;17.50;;;;;24.66;38.35;100799.84;6373421;22;44635;-89
2023/06/08 22:22:44;;;;;;;;;16.50;16.50;;;;;24.63;38.39;100794.78;6374545;22;45258;-90
2023/06/08 22:25:15;;;;;;;;;18.00;17.25;;;;;24.61;38.21;100790.59;6415032;22;45578;-90
2023/06/08 22:27:40;;;;;;;;;22.50;18.50;;;;;24.56;38.43;100791.06;6426232;22;45098;-91
2023/06/08 22:30:07;;;;;;;;;17.25;15.50;;;;;24.54;38.26;100790.38;6400594;22;44754;-91
2023/06/08 22:42:50;;;;;;;;;17.50;17.50;;;;;24.40;39.07;100786.38;6408227;22;45247;-90
2023/06/08 22:45:15;;;;;;;;;19.50;19.25;;;;;24.37;39.00;100794.63;6381382;22;46635;-90
2023/06/08 22:47:41;;;;;;;;;17.75;15.50;;;;;24.34;39.04;100787.78;6376311;22;45367;-90
2023/06/08 22:50:07;;;;;;;;;21.75;20.25;;;;;24.33;39.19;100790.56;6373034;22;45305;-90
2023/06/08 22:52:33;;;;;;;;;18.50;17.50;;;;;24.31;39.06;100790.72;6373460;22;45314;-90
2023/06/08 22:54:58;;;;;;;;;18.75;18.00;;;;;24.28;39.42;100794.53;6372041;22;45431;-89
2023/06/08 22:57:24;;;;;;;;;18.00;17.25;;;;;24.26;39.64;100787.66;6401573;22;45339;-89
2023/06/08 22:59:50;;;;;;;;;16.25;15.25;;;;;24.24;39.88;100784.28;6400327;22;45284;-89
2023/06/08 23:02:15;;;;;;;;;17.50;17.50;;;;;24.21;39.68;100780.09;6401717;22;45432;-89
2023/06/08 23:04:46;;;;;;;;;18.00;18.00;;;;;24.19;39.20;100782.06;6396937;22;45809;-90
2023/06/08 23:07:15;;;;;;;;;19.50;18.25;;;;;24.15;39.90;100780.69;6401003;22;45460;-90
2023/06/08 23:09:48;;;;;;;;;16.50;16.50;;;;;24.13;39.69;100778.19;6400864;22;45366;-90
2023/06/08 23:12:15;;;;;;;;;19.00;19.00;;;;;24.10;39.92;100772.28;6374198;22;45439;-90
2023/06/08 23:14:48;;;;;;;;;17.25;17.25;;;;;24.05;40.01;100769.19;6402438;22;45614;-89
2023/06/08 23:17:14;;;;;;;;;18.75;18.75;;;;;24.01;39.96;100769.50;6406794;22;45349;-90
2023/06/08 23:19:42;;;;;;;;;18.25;18.25;;;;;24.01;40.81;100766.84;6379936;22;45242;-90
2023/06/08 23:22:08;;;;;;;;;17.75;17.75;;;;;23.97;40.48;100773.41;6410111;22;44766;-90
2023/06/08 23:24:34;;;;;;;;;19.00;18.50;;;;;23.96;39.99;100773.56;6381181;22;45579;-90
2023/06/08 23:26:59;;;;;;;;;18.00;18.00;;;;;23.93;40.22;100769.34;6372297;22;45459;-90